Weather at Tongareva Airport

Public forecast

Using degrees Celsius for public forecast. Weather courtesy of forecast.io.

Current aviation weather report (METAR) for Tongareva Airport

Retrieved 2021/10/17 11:00 UTC (45 minutes ago):

NCPY 171100Z AUTO 02009KT //// ////// 27/24 Q1012

Aviation forecast (TAF) for Tongareva Airport

Forecast is more than 12 hours old.

Retrieved 2018/02/21 16:17 UTC (4 years ago):

TAF NCPY 211518Z 2116/2205 06012KT 9999 SCT018 BKN100 PROB40 TEMPO 2116/2205 3000 TSRA BKN015 FEW018CB